Time;durP1;ratioP1;P1;durP2;ratioP2;P2;SDS_P1;SDS_P2;PMS_P1;PMS_P2;Temp;Humidity;BMP_temperature;BMP_pressure;BME280_temperature;BME280_humidity;BME280_pressure;Samples;Min_cycle;Max_cycle;Signal;HPM_P1;HPM_P2
2023/06/20 00:00:57;;;;;;;3.85;1.88;;;17.20;99.90;;;;;;5011850;28;20130;-70
2023/06/20 00:03:23;;;;;;;2.10;1.70;;;17.20;99.90;;;;;;5013077;28;20049;-70
2023/06/20 00:05:50;;;;;;;2.13;1.90;;;17.20;99.90;;;;;;5029601;28;20092;-70
2023/06/20 00:08:16;;;;;;;2.47;2.00;;;17.20;99.90;;;;;;5013305;28;20053;-70
2023/06/20 00:10:43;;;;;;;2.65;2.15;;;17.10;99.90;;;;;;5030847;28;20174;-70
2023/06/20 00:13:10;;;;;;;2.80;2.08;;;17.10;99.90;;;;;;5012346;28;20049;-70
2023/06/20 00:15:36;;;;;;;2.47;2.28;;;17.00;99.90;;;;;;4997177;28;20053;-70
2023/06/20 00:18:02;;;;;;;4.93;2.38;;;17.10;99.90;;;;;;5012188;28;20061;-70
2023/06/20 00:20:30;;;;;;;3.05;1.90;;;17.10;99.90;;;;;;5031451;28;20092;-72
2023/06/20 00:22:57;;;;;;;2.35;2.20;;;17.10;99.90;;;;;;5012290;28;20154;-70
2023/06/20 00:25:23;;;;;;;3.00;2.22;;;17.10;99.90;;;;;;5030654;28;20503;-70
2023/06/20 00:27:50;;;;;;;2.42;2.10;;;17.00;99.90;;;;;;4996737;28;20057;-71
2023/06/20 00:30:16;;;;;;;3.20;2.22;;;17.00;99.90;;;;;;5012173;28;20045;-70
2023/06/20 00:32:42;;;;;;;2.40;2.22;;;17.00;99.90;;;;;;5012780;28;20062;-71
2023/06/20 00:35:09;;;;;;;2.10;1.90;;;17.00;99.90;;;;;;5012196;28;20046;-71
2023/06/20 00:37:38;;;;;;;2.17;2.08;;;16.90;99.90;;;;;;5013211;28;20063;-70
2023/06/20 00:40:09;;;;;;;2.38;2.17;;;16.90;99.90;;;;;;5011436;28;20507;-68
2023/06/20 00:42:35;;;;;;;2.25;2.15;;;16.90;99.90;;;;;;5030541;28;20056;-68
2023/06/20 00:45:03;;;;;;;5.72;2.10;;;16.80;99.90;;;;;;5012447;28;20057;-68
2023/06/20 00:47:29;;;;;;;2.58;2.38;;;16.80;99.90;;;;;;4998916;28;20125;-68
2023/06/20 00:49:56;;;;;;;2.50;1.85;;;16.80;99.90;;;;;;5012503;28;20045;-69
2023/06/20 00:52:24;;;;;;;2.47;2.28;;;16.70;99.90;;;;;;4994719;28;20037;-68
2023/06/20 00:54:51;;;;;;;2.47;2.05;;;16.70;99.90;;;;;;4996280;28;20045;-69
2023/06/20 00:57:19;;;;;;;2.53;2.22;;;16.70;99.90;;;;;;5011702;28;20472;-68
2023/06/20 00:59:50;;;;;;;2.40;2.10;;;16.70;99.90;;;;;;5012470;28;20485;-68
2023/06/20 01:02:17;;;;;;;1.88;1.77;;;16.70;99.90;;;;;;5007722;28;20057;-68
2023/06/20 01:04:45;;;;;;;4.35;2.05;;;16.70;99.90;;;;;;5011285;28;20045;-68
2023/06/20 01:07:41;;;;;;;2.87;2.17;;;16.70;99.90;;;;;;4998822;28;20132;-68
2023/06/20 01:10:31;;;;;;;1.90;1.80;;;16.60;99.90;;;;;;5011139;28;20888;-68
2023/06/20 01:13:16;;;;;;;2.88;1.73;;;16.70;99.90;;;;;;5000785;28;20080;-68
2023/06/20 01:15:55;;;;;;;1.80;1.70;;;16.70;99.90;;;;;;5007143;28;20053;-71
2023/06/20 01:18:33;;;;;;;2.03;1.93;;;16.70;99.90;;;;;;5011458;28;20055;-70
2023/06/20 01:21:12;;;;;;;2.28;1.70;;;16.60;99.90;;;;;;5029781;28;20049;-71
2023/06/20 01:23:52;;;;;;;1.92;1.83;;;16.70;99.90;;;;;;5025348;28;20373;-70
2023/06/20 01:26:35;;;;;;;1.88;1.77;;;16.60;99.90;;;;;;5011705;28;20464;-70
2023/06/20 01:29:13;;;;;;;2.53;2.33;;;16.70;99.90;;;;;;5029552;28;20057;-71
2023/06/20 01:31:44;;;;;;;3.42;2.40;;;16.70;99.90;;;;;;5011013;28;20064;-70
2023/06/20 01:34:20;;;;;;;5.20;1.92;;;16.70;99.90;;;;;;5011471;28;20057;-70
2023/06/20 01:36:58;;;;;;;2.20;1.95;;;16.80;99.90;;;;;;5011218;28;20049;-70
2023/06/20 01:39:35;;;;;;;2.35;2.15;;;16.80;99.90;;;;;;5011397;28;20512;-70
2023/06/20 01:42:03;;;;;;;3.05;2.45;;;16.80;99.90;;;;;;5011878;28;20045;-70
2023/06/20 01:44:33;;;;;;;3.45;2.30;;;16.80;99.90;;;;;;5010173;28;20061;-70
2023/06/20 01:47:01;;;;;;;3.45;2.60;;;16.80;99.90;;;;;;5011520;28;20112;-70
2023/06/20 01:49:28;;;;;;;2.85;2.55;;;16.80;99.90;;;;;;5010802;28;20585;-70
2023/06/20 01:51:56;;;;;;;3.90;2.60;;;16.80;99.90;;;;;;5011192;28;20077;-70
2023/06/20 01:54:30;;;;;;;2.88;2.42;;;16.80;99.90;;;;;;5011039;28;20060;-69
2023/06/20 01:56:59;;;;;;;2.40;2.20;;;16.90;99.90;;;;;;5010351;28;20052;-71
2023/06/20 01:59:28;;;;;;;2.60;2.40;;;16.80;99.90;;;;;;5011435;28;20393;-70
2023/06/20 02:01:57;;;;;;;5.53;2.50;;;16.80;99.90;;;;;;5009720;28;20056;-70
2023/06/20 02:04:25;;;;;;;4.65;2.95;;;16.90;99.90;;;;;;5011011;28;20127;-70
2023/06/20 02:06:52;;;;;;;2.75;2.53;;;16.90;99.90;;;;;;4994083;28;20042;-70
2023/06/20 02:09:19;;;;;;;4.82;3.38;;;16.90;99.90;;;;;;5010846;28;20124;-70
2023/06/20 02:11:47;;;;;;;4.72;3.63;;;16.90;99.90;;;;;;5002191;28;20058;-70
2023/06/20 02:14:16;;;;;;;4.82;3.22;;;16.90;99.90;;;;;;5022587;28;20841;-70
2023/06/20 02:16:43;;;;;;;6.28;3.55;;;16.90;99.90;;;;;;5010013;28;20530;-70
2023/06/20 02:19:11;;;;;;;6.90;3.53;;;16.90;99.90;;;;;;5009211;28;20245;-70
2023/06/20 02:21:41;;;;;;;4.90;3.50;;;16.90;99.90;;;;;;4996156;28;20049;-70
2023/06/20 02:24:08;;;;;;;6.40;3.95;;;16.90;99.90;;;;;;5003696;28;20057;-70
2023/06/20 02:26:39;;;;;;;4.35;3.78;;;16.90;99.90;;;;;;5008973;28;20061;-70
2023/06/20 02:29:08;;;;;;;5.80;4.03;;;16.90;99.90;;;;;;5009213;28;20049;-70
2023/06/20 02:31:40;;;;;;;6.88;4.00;;;17.00;99.90;;;;;;5004233;28;20068;-70
2023/06/20 02:34:09;;;;;;;4.50;3.83;;;17.00;99.90;;;;;;4979082;28;20432;-68
2023/06/20 02:36:36;;;;;;;5.25;4.40;;;17.00;99.90;;;;;;4988315;28;20041;-69
2023/06/20 02:39:04;;;;;;;4.75;3.92;;;17.00;99.90;;;;;;4999144;28;20053;-70
2023/06/20 02:41:30;;;;;;;4.65;3.75;;;17.00;99.90;;;;;;5005195;28;20096;-71
2023/06/20 02:43:57;;;;;;;5.28;4.30;;;17.00;99.90;;;;;;5000322;28;20054;-70
2023/06/20 02:46:39;;;;;;;5.72;4.32;;;17.00;99.90;;;;;;4990118;28;20124;-70
2023/06/20 02:49:15;;;;;;;4.78;4.20;;;17.00;99.90;;;;;;5008470;28;20568;-70
2023/06/20 02:51:51;;;;;;;5.22;4.45;;;17.00;99.90;;;;;;4992969;28;20056;-70
2023/06/20 02:54:29;;;;;;;5.80;4.18;;;17.00;99.90;;;;;;5026770;28;20388;-70
2023/06/20 02:56:59;;;;;;;4.30;3.90;;;17.00;99.90;;;;;;5008367;28;20053;-70
2023/06/20 02:59:28;;;;;;;4.22;3.88;;;16.90;99.90;;;;;;5009561;28;20110;-70
2023/06/20 03:01:58;;;;;;;4.15;3.75;;;16.90;99.90;;;;;;5002533;28;20133;-69
2023/06/20 03:04:27;;;;;;;;;;;16.90;99.90;;;;;;5009651;28;20488;-70
2023/06/20 03:06:54;;;;;;;;;;;16.90;99.90;;;;;;5026870;28;19947;-70
2023/06/20 03:09:22;;;;;;;4.63;3.60;;;16.90;99.90;;;;;;4988589;28;20342;-70
2023/06/20 03:11:49;;;;;;;4.25;3.83;;;16.90;99.90;;;;;;5007919;28;20496;-70
2023/06/20 03:14:15;;;;;;;4.93;3.78;;;16.80;99.90;;;;;;5003667;28;20052;-70
2023/06/20 03:16:42;;;;;;;6.90;4.35;;;16.80;99.90;;;;;;5026990;28;20519;-70
2023/06/20 03:19:11;;;;;;;4.32;4.00;;;16.80;99.90;;;;;;5008065;28;20049;-70
2023/06/20 03:21:39;;;;;;;;;;;16.80;99.90;;;;;;5014024;28;20049;-70
2023/06/20 03:24:06;;;;;;;6.28;4.35;;;16.80;99.90;;;;;;5008399;28;20012;-70
2023/06/20 03:26:38;;;;;;;4.90;4.40;;;16.90;99.90;;;;;;5008704;28;20396;-71
2023/06/20 03:29:05;;;;;;;6.65;4.50;;;16.80;99.90;;;;;;5008590;28;20095;-71
2023/06/20 03:31:31;;;;;;;5.95;4.53;;;16.90;99.90;;;;;;5008087;28;20057;-70
2023/06/20 03:33:58;;;;;;;5.20;3.97;;;16.80;99.90;;;;;;5008232;28;20046;-70
2023/06/20 03:36:30;;;;;;;6.40;4.47;;;16.90;99.90;;;;;;5005750;28;20068;-70
2023/06/20 03:38:58;;;;;;;6.25;4.63;;;16.90;99.90;;;;;;5008950;28;20053;-71
2023/06/20 03:41:24;;;;;;;5.45;4.55;;;16.90;99.90;;;;;;4991992;28;20063;-70
2023/06/20 03:43:50;;;;;;;7.65;3.97;;;16.90;99.90;;;;;;5008441;28;20045;-71
2023/06/20 03:46:17;;;;;;;5.63;4.70;;;16.90;99.90;;;;;;5000492;28;20085;-70
2023/06/20 03:48:43;;;;;;;4.95;3.97;;;16.90;99.90;;;;;;5007378;28;20454;-70
2023/06/20 03:51:10;;;;;;;6.47;4.15;;;16.90;99.90;;;;;;5005718;28;20072;-70
2023/06/20 03:53:36;;;;;;;4.65;4.00;;;16.90;99.90;;;;;;4988035;28;20034;-70
2023/06/20 03:56:03;;;;;;;6.55;3.83;;;17.00;99.90;;;;;;5003927;28;20057;-70
2023/06/20 03:58:29;;;;;;;6.75;4.30;;;16.90;99.90;;;;;;5008112;28;20049;-70
2023/06/20 04:00:56;;;;;;;4.78;4.18;;;17.00;99.90;;;;;;5008573;28;20473;-71
2023/06/20 04:03:23;;;;;;;4.45;4.03;;;17.00;99.90;;;;;;5025666;28;20140;-70
2023/06/20 04:05:49;;;;;;;4.70;4.20;;;17.00;99.90;;;;;;4994038;28;20097;-70
2023/06/20 04:08:18;;;;;;;7.32;4.43;;;17.00;99.90;;;;;;5001524;28;20136;-70
2023/06/20 04:10:45;;;;;;;6.63;4.18;;;17.00;99.90;;;;;;5006137;28;20284;-71
2023/06/20 04:13:12;;;;;;;5.20;4.18;;;17.10;99.90;;;;;;5009927;28;20061;-68
2023/06/20 04:15:38;;;;;;;4.72;4.10;;;17.10;99.90;;;;;;5006829;28;20491;-70
2023/06/20 04:18:06;;;;;;;4.30;3.90;;;17.10;99.90;;;;;;5011853;28;20042;-70
2023/06/20 04:20:33;;;;;;;3.67;3.38;;;17.10;99.90;;;;;;4983880;28;20050;-70
2023/06/20 04:22:59;;;;;;;3.78;3.28;;;17.10;99.90;;;;;;5006420;28;20464;-70
2023/06/20 04:25:25;;;;;;;3.97;3.58;;;17.20;99.90;;;;;;5010825;28;20423;-70
2023/06/20 04:27:55;;;;;;;4.53;4.10;;;17.20;99.90;;;;;;5007578;28;20054;-70
2023/06/20 04:30:23;;;;;;;4.82;3.83;;;17.20;99.90;;;;;;5011278;28;20083;-70
2023/06/20 04:32:53;;;;;;;5.03;4.10;;;17.20;99.90;;;;;;4977537;28;20053;-70
2023/06/20 04:35:20;;;;;;;6.47;4.55;;;17.30;99.90;;;;;;5011238;28;20088;-70
2023/06/20 04:37:51;;;;;;;4.35;3.95;;;17.30;99.90;;;;;;5011378;28;20558;-71
2023/06/20 04:40:20;;;;;;;6.43;4.20;;;17.30;99.90;;;;;;5028746;28;20042;-70
2023/06/20 04:42:47;;;;;;;4.13;3.72;;;17.30;99.90;;;;;;4999377;28;20054;-70
2023/06/20 04:45:14;;;;;;;5.35;4.28;;;17.40;99.90;;;;;;5009247;28;20052;-70
2023/06/20 04:47:42;;;;;;;4.82;4.05;;;17.40;99.90;;;;;;5017568;28;20128;-70
2023/06/20 04:50:10;;;;;;;4.65;3.80;;;17.40;99.90;;;;;;5010578;28;20051;-70
2023/06/20 04:52:37;;;;;;;4.95;4.22;;;17.40;99.90;;;;;;5011310;28;20099;-70
2023/06/20 04:55:03;;;;;;;4.22;3.83;;;17.40;99.90;;;;;;5006642;28;20452;-70
2023/06/20 04:57:30;;;;;;;5.35;4.07;;;17.50;99.90;;;;;;5010707;28;20181;-70
2023/06/20 04:59:57;;;;;;;4.30;3.83;;;17.50;99.90;;;;;;4994551;28;20451;-70
2023/06/20 05:02:24;;;;;;;4.35;3.95;;;17.50;99.90;;;;;;4976332;28;20037;-70
2023/06/20 05:04:51;;;;;;;4.50;3.67;;;17.50;99.90;;;;;;5003813;28;20049;-70
2023/06/20 05:07:17;;;;;;;4.72;4.20;;;17.60;99.90;;;;;;5009938;28;20045;-70
2023/06/20 05:09:44;;;;;;;5.43;3.72;;;17.60;99.90;;;;;;5022907;28;20054;-70
2023/06/20 05:12:11;;;;;;;4.90;4.45;;;17.70;99.90;;;;;;5010721;28;20532;-69
2023/06/20 05:14:43;;;;;;;5.13;3.80;;;17.70;99.90;;;;;;5003267;28;20049;-68
2023/06/20 05:17:11;;;;;;;5.60;3.70;;;17.70;99.90;;;;;;4993780;28;20077;-68
2023/06/20 05:19:37;;;;;;;4.82;4.00;;;17.80;99.90;;;;;;4999702;28;20080;-70
2023/06/20 05:22:04;;;;;;;4.28;3.90;;;17.90;99.90;;;;;;5011168;28;20111;-70
2023/06/20 05:24:30;;;;;;;4.20;3.83;;;17.90;99.90;;;;;;4992900;28;20049;-70
2023/06/20 05:26:57;;;;;;;5.25;4.20;;;17.90;99.90;;;;;;5028679;28;20058;-70
2023/06/20 05:29:23;;;;;;;4.97;3.83;;;17.90;99.90;;;;;;5009776;28;20124;-70
2023/06/20 05:31:49;;;;;;;4.57;3.78;;;18.00;99.90;;;;;;5027073;28;20049;-71
2023/06/20 05:34:16;;;;;;;5.57;4.30;;;18.10;99.90;;;;;;5006300;28;20041;-70
2023/06/20 05:36:43;;;;;;;7.88;3.92;;;18.10;99.90;;;;;;5008163;28;20518;-70
2023/06/20 05:39:09;;;;;;;4.30;3.90;;;18.20;99.90;;;;;;5000371;28;20054;-70
2023/06/20 05:41:44;;;;;;;4.03;3.63;;;18.20;99.90;;;;;;5006255;28;20245;-70
2023/06/20 05:44:11;;;;;;;5.10;3.70;;;18.30;99.90;;;;;;5010525;28;20093;-70
2023/06/20 05:46:37;;;;;;;4.53;3.55;;;18.30;99.90;;;;;;5006291;28;20128;-70
2023/06/20 05:49:04;;;;;;;4.65;4.15;;;18.40;99.90;;;;;;5000332;28;20508;-70
2023/06/20 05:51:30;;;;;;;4.05;3.65;;;18.40;99.90;;;;;;5009884;28;20342;-70
2023/06/20 05:54:02;;;;;;;5.63;4.05;;;18.50;99.90;;;;;;5009844;28;20830;-70
2023/06/20 05:56:29;;;;;;;8.02;3.90;;;18.50;99.90;;;;;;5008673;28;20055;-71
2023/06/20 05:58:55;;;;;;;5.30;3.92;;;18.60;99.90;;;;;;5008082;28;20037;-70
2023/06/20 06:01:22;;;;;;;4.35;3.55;;;18.60;99.90;;;;;;5009792;28;20099;-70
2023/06/20 06:03:51;;;;;;;;;;;18.60;99.90;;;;;;5024332;28;20064;-70
2023/06/20 06:06:17;;;;;;;7.05;3.40;;;18.70;99.90;;;;;;5009924;28;19968;-70
2023/06/20 06:08:50;;;;;;;5.00;3.88;;;18.70;99.90;;;;;;5005756;28;20475;-69
2023/06/20 06:11:17;;;;;;;5.72;3.75;;;18.70;99.90;;;;;;4991935;28;20095;-70
2023/06/20 06:13:44;;;;;;;5.95;3.67;;;18.80;99.90;;;;;;5013337;28;20053;-70
2023/06/20 06:16:10;;;;;;;8.60;3.40;;;18.80;99.90;;;;;;5002026;28;20057;-70
2023/06/20 06:18:37;;;;;;;5.10;3.33;;;18.90;99.90;;;;;;5009647;28;20045;-69
2023/06/20 06:21:03;;;;;;;3.92;3.28;;;19.00;99.30;;;;;;5009320;28;20054;-70
2023/06/20 06:23:30;;;;;;;4.22;3.42;;;19.00;97.30;;;;;;5009695;28;20049;-70
2023/06/20 06:25:56;;;;;;;3.95;3.55;;;19.20;98.80;;;;;;5009301;28;20447;-69
2023/06/20 06:28:23;;;;;;;4.15;3.70;;;19.20;97.60;;;;;;5008728;28;20049;-69
2023/06/20 06:30:50;;;;;;;4.15;3.65;;;19.40;99.40;;;;;;5009847;28;20049;-70
2023/06/20 06:33:16;;;;;;;5.22;3.53;;;19.50;97.00;;;;;;5005694;28;20613;-70
2023/06/20 06:35:44;;;;;;;3.70;3.40;;;19.50;97.90;;;;;;5007643;28;20103;-70
2023/06/20 06:38:12;;;;;;;3.70;3.28;;;19.70;97.30;;;;;;5024262;28;20495;-69
2023/06/20 06:40:38;;;;;;;3.58;3.22;;;19.80;99.70;;;;;;5000506;28;20137;-69
2023/06/20 06:43:06;;;;;;;3.88;3.58;;;19.90;99.50;;;;;;4995618;28;20100;-70
2023/06/20 06:45:32;;;;;;;4.57;3.42;;;20.00;96.70;;;;;;5006543;28;20076;-70
2023/06/20 06:47:59;;;;;;;3.50;3.20;;;20.10;95.90;;;;;;4984371;28;20053;-70
2023/06/20 06:50:25;;;;;;;4.32;3.03;;;20.20;97.50;;;;;;5000655;28;20037;-70
2023/06/20 06:52:52;;;;;;;4.05;3.65;;;20.20;97.60;;;;;;5001371;28;20061;-69
2023/06/20 06:55:18;;;;;;;4.13;3.65;;;20.40;94.30;;;;;;4992454;28;20418;-70
2023/06/20 06:57:44;;;;;;;4.03;3.35;;;20.40;94.50;;;;;;5004314;28;20054;-70
2023/06/20 07:00:14;;;;;;;5.22;3.67;;;20.50;93.80;;;;;;5008870;28;20132;-70
2023/06/20 07:02:42;;;;;;;3.80;3.50;;;20.60;92.30;;;;;;4976322;28;20041;-70
2023/06/20 07:05:10;;;;;;;4.07;3.72;;;20.70;92.60;;;;;;5009084;28;20132;-69
2023/06/20 07:07:37;;;;;;;3.97;3.58;;;20.80;93.80;;;;;;5008373;28;20049;-70
2023/06/20 07:10:04;;;;;;;4.35;3.95;;;20.80;90.90;;;;;;5005578;28;20100;-70
2023/06/20 07:12:31;;;;;;;6.53;3.47;;;20.90;90.00;;;;;;5007684;28;20057;-70
2023/06/20 07:14:57;;;;;;;6.78;2.88;;;21.00;93.10;;;;;;5009152;28;20115;-70
2023/06/20 07:17:25;;;;;;;3.20;2.90;;;21.10;90.40;;;;;;4999525;28;20108;-69
2023/06/20 07:19:52;;;;;;;3.50;3.20;;;21.30;85.20;;;;;;4991854;28;20045;-69
2023/06/20 07:22:20;;;;;;;2.92;2.72;;;21.40;86.50;;;;;;5009189;28;20473;-71
2023/06/20 07:24:47;;;;;;;3.33;2.78;;;21.50;76.10;;;;;;5008010;28;20041;-70
2023/06/20 07:27:14;;;;;;;4.63;2.65;;;21.60;65.00;;;;;;5009228;28;20049;-71
2023/06/20 07:29:41;;;;;;;3.15;2.90;;;21.70;57.30;;;;;;5007707;28;20053;-71
2023/06/20 07:32:08;;;;;;;4.63;3.10;;;21.90;55.00;;;;;;4992978;28;20081;-69
2023/06/20 07:34:35;;;;;;;3.53;3.22;;;22.10;54.30;;;;;;5019196;28;20128;-70
2023/06/20 07:37:01;;;;;;;8.57;2.95;;;22.30;52.50;;;;;;5006983;28;20069;-69
2023/06/20 07:39:28;;;;;;;3.80;3.15;;;22.40;57.80;;;;;;5025642;28;20453;-70
2023/06/20 07:41:55;;;;;;;2.65;2.45;;;22.50;52.40;;;;;;5008039;28;20064;-70
2023/06/20 07:44:21;;;;;;;3.75;2.95;;;22.90;51.50;;;;;;5002642;28;20049;-69
2023/06/20 07:46:48;;;;;;;4.45;3.10;;;23.30;39.60;;;;;;4995278;28;20064;-70
2023/06/20 07:49:15;;;;;;;3.25;3.05;;;23.40;38.20;;;;;;5021261;28;20042;-70
2023/06/20 07:51:42;;;;;;;3.85;2.80;;;23.20;34.80;;;;;;5010211;28;20529;-70
2023/06/20 07:54:09;;;;;;;4.32;3.30;;;23.00;42.70;;;;;;4999794;28;20692;-69
2023/06/20 07:56:36;;;;;;;3.33;3.00;;;22.80;47.20;;;;;;4991764;28;20232;-71
2023/06/20 07:59:04;;;;;;;3.25;2.95;;;22.70;44.90;;;;;;5010211;28;20380;-70
2023/06/20 08:01:31;;;;;;;3.13;2.78;;;22.50;51.20;;;;;;5008554;28;20049;-70
2023/06/20 08:03:57;;;;;;;4.85;3.20;;;22.40;46.40;;;;;;5026649;28;20057;-70
2023/06/20 08:06:24;;;;;;;3.92;3.30;;;22.30;50.90;;;;;;5005438;28;20061;-70
2023/06/20 08:08:51;;;;;;;3.63;3.22;;;22.20;46.50;;;;;;5001904;28;20045;-70
2023/06/20 08:11:24;;;;;;;3.78;3.47;;;22.10;51.00;;;;;;5011056;28;20443;-70
2023/06/20 08:13:51;;;;;;;4.13;3.13;;;22.10;54.40;;;;;;5011505;28;20049;-71
2023/06/20 08:16:18;;;;;;;3.10;2.80;;;22.10;55.60;;;;;;5004627;28;20037;-70
2023/06/20 08:18:44;;;;;;;8.93;3.15;;;22.00;52.40;;;;;;5008356;28;20049;-70
2023/06/20 08:21:11;;;;;;;2.90;2.63;;;22.00;55.30;;;;;;5005599;28;20076;-70
2023/06/20 08:23:37;;;;;;;3.85;3.05;;;21.90;59.70;;;;;;4993022;28;20546;-69
2023/06/20 08:26:04;;;;;;;4.07;2.88;;;21.80;55.10;;;;;;5003387;28;20492;-70
2023/06/20 08:28:30;;;;;;;3.55;3.20;;;21.80;60.30;;;;;;5007926;28;20056;-69
2023/06/20 08:30:56;;;;;;;3.25;2.85;;;21.80;63.50;;;;;;5004379;28;20049;-70
2023/06/20 08:33:23;;;;;;;4.40;3.63;;;21.80;66.90;;;;;;5006912;28;20464;-71
2023/06/20 08:35:50;;;;;;;3.80;2.92;;;21.80;63.30;;;;;;5017830;28;20041;-69
2023/06/20 08:38:17;;;;;;;5.43;2.95;;;21.70;65.90;;;;;;5002148;28;20083;-69
2023/06/20 08:40:44;;;;;;;4.28;3.35;;;21.70;69.80;;;;;;5006565;28;20099;-70
2023/06/20 08:43:17;;;;;;;3.33;3.03;;;21.80;71.10;;;;;;5009063;28;20068;-69
2023/06/20 08:45:44;;;;;;;5.05;2.85;;;21.90;70.60;;;;;;5021586;28;20055;-71
2023/06/20 08:48:11;;;;;;;2.95;2.75;;;22.00;74.30;;;;;;4973480;28;20042;-71
2023/06/20 08:50:38;;;;;;;7.07;3.30;;;22.00;66.60;;;;;;4995673;28;20516;-71
2023/06/20 08:53:06;;;;;;;3.45;3.15;;;22.10;63.60;;;;;;5028104;28;20499;-70
2023/06/20 08:55:39;;;;;;;3.92;3.08;;;22.10;62.50;;;;;;4994080;28;20090;-69
2023/06/20 08:58:09;;;;;;;3.25;2.58;;;22.10;67.90;;;;;;4988123;28;20037;-71
2023/06/20 09:00:38;;;;;;;3.60;3.30;;;22.20;67.00;;;;;;4994716;28;20056;-70
2023/06/20 09:03:10;;;;;;;3.50;3.03;;;22.30;60.40;;;;;;5026214;28;20084;-70
2023/06/20 09:05:41;;;;;;;4.03;2.90;;;22.30;63.10;;;;;;5006247;28;20081;-69
2023/06/20 09:08:07;;;;;;;3.60;3.30;;;22.30;66.70;;;;;;5025873;28;20041;-71
2023/06/20 09:10:36;;;;;;;4.40;3.67;;;22.40;68.30;;;;;;5009676;28;20069;-70
2023/06/20 09:13:04;;;;;;;5.05;3.42;;;22.30;70.60;;;;;;5008446;28;20061;-70
2023/06/20 09:15:30;;;;;;;4.22;3.65;;;22.30;62.60;;;;;;5000715;28;20053;-70
2023/06/20 09:18:01;;;;;;;4.80;3.70;;;22.20;66.50;;;;;;5006546;28;20103;-70
2023/06/20 09:20:29;;;;;;;5.13;4.22;;;22.20;66.50;;;;;;5010086;28;20474;-70
2023/06/20 09:22:56;;;;;;;3.78;3.38;;;22.20;68.00;;;;;;5009542;28;20132;-69
2023/06/20 09:25:28;;;;;;;4.00;3.67;;;22.30;72.70;;;;;;5009928;28;20111;-69
2023/06/20 09:27:55;;;;;;;7.13;3.05;;;22.40;80.30;;;;;;4993152;28;20053;-70
2023/06/20 09:30:23;;;;;;;4.75;4.28;;;22.60;68.40;;;;;;5009095;28;20049;-70
2023/06/20 09:32:49;;;;;;;5.10;3.67;;;22.90;67.20;;;;;;4992659;28;20053;-70
2023/06/20 09:35:16;;;;;;;3.78;3.40;;;23.10;70.20;;;;;;5007028;28;20053;-70
2023/06/20 09:37:45;;;;;;;4.68;3.17;;;23.40;68.20;;;;;;5027035;28;20052;-70
2023/06/20 09:40:13;;;;;;;3.92;3.40;;;23.50;67.30;;;;;;5005971;28;20122;-70
2023/06/20 09:42:42;;;;;;;3.50;3.20;;;23.60;63.00;;;;;;5008514;28;20123;-69
2023/06/20 09:45:10;;;;;;;3.90;3.60;;;23.70;55.00;;;;;;5005314;28;20057;-70
2023/06/20 09:47:38;;;;;;;3.83;3.53;;;23.60;53.90;;;;;;5001222;28;20045;-70
2023/06/20 09:50:09;;;;;;;4.20;3.90;;;23.50;52.10;;;;;;5008612;28;20685;-70
2023/06/20 09:52:55;;;;;;;5.65;3.40;;;23.40;57.60;;;;;;5004341;28;20106;-70
2023/06/20 09:55:23;;;;;;;3.88;3.50;;;23.50;57.60;;;;;;4997289;28;20128;-70
2023/06/20 09:58:00;;;;;;;5.18;3.35;;;23.60;45.00;;;;;;5006336;28;20068;-70
2023/06/20 10:00:27;;;;;;;3.70;3.30;;;23.70;42.70;;;;;;5018038;28;20061;-69
2023/06/20 10:02:58;;;;;;;3.65;3.35;;;23.80;53.00;;;;;;5000424;28;20132;-70
2023/06/20 10:05:27;;;;;;;3.83;3.50;;;24.00;44.10;;;;;;5000490;28;20053;-71
2023/06/20 10:07:59;;;;;;;4.18;3.78;;;24.10;37.30;;;;;;5009255;28;20058;-71
2023/06/20 10:10:26;;;;;;;4.97;3.45;;;24.20;39.30;;;;;;5005577;28;20064;-69
2023/06/20 10:12:55;;;;;;;4.38;3.20;;;24.30;47.30;;;;;;5024271;28;20045;-70
2023/06/20 10:15:22;;;;;;;5.63;3.67;;;24.50;45.20;;;;;;4990377;28;20049;-68
2023/06/20 10:17:49;;;;;;;2.88;2.67;;;24.50;32.90;;;;;;5019372;28;20045;-68
2023/06/20 10:20:31;;;;;;;3.50;3.20;;;24.60;29.10;;;;;;5027220;28;20376;-69
2023/06/20 10:23:03;;;;;;;3.28;2.97;;;24.50;22.50;;;;;;4997100;28;20049;-68
2023/06/20 10:25:32;;;;;;;2.83;2.72;;;24.50;39.00;;;;;;5001674;28;20053;-68
2023/06/20 10:28:03;;;;;;;2.97;2.72;;;24.40;28.10;;;;;;5005085;28;20057;-69
2023/06/20 10:30:53;;;;;;;3.25;3.05;;;24.50;27.50;;;;;;5006351;28;20492;-69
2023/06/20 10:33:37;;;;;;;3.38;3.08;;;24.50;24.40;;;;;;5011505;28;20496;-68
2023/06/20 10:36:31;;;;;;;2.75;2.63;;;24.70;34.60;;;;;;5006637;28;20111;-68
2023/06/20 10:38:59;;;;;;;2.95;2.75;;;24.70;34.30;;;;;;4995804;28;20263;-68
2023/06/20 10:41:46;;;;;;;3.88;3.20;;;24.80;22.00;;;;;;5006881;28;20049;-68
2023/06/20 10:44:29;;;;;;;6.18;3.15;;;24.80;33.80;;;;;;5003636;28;20800;-70
2023/06/20 10:46:55;;;;;;;3.20;3.00;;;24.90;18.60;;;;;;5022531;28;20136;-69
2023/06/20 10:49:22;;;;;;;2.95;2.70;;;24.90;22.30;;;;;;5018704;28;20056;-69
2023/06/20 10:51:50;;;;;;;3.47;3.17;;;24.90;16.10;;;;;;5003600;28;20041;-68
2023/06/20 10:54:18;;;;;;;2.85;2.45;;;24.90;17.30;;;;;;5022494;28;20053;-69
2023/06/20 10:56:46;;;;;;;3.17;2.88;;;25.00;18.50;;;;;;4992864;28;20065;-68
2023/06/20 10:59:18;;;;;;;4.07;3.10;;;24.90;14.80;;;;;;5004345;28;20111;-68
2023/06/20 11:01:45;;;;;;;3.08;2.83;;;24.80;14.60;;;;;;4983949;28;20095;-68
2023/06/20 11:04:15;;;;;;;3.25;2.95;;;24.80;18.40;;;;;;4997914;28;20568;-68
2023/06/20 11:06:43;;;;;;;2.90;2.70;;;24.80;17.50;;;;;;5001732;28;20044;-68
2023/06/20 11:09:21;;;;;;;3.07;2.77;;;24.90;24.20;;;;;;4995552;28;20067;-68
2023/06/20 11:11:48;;;;;;;3.35;3.10;;;25.10;26.70;;;;;;5008777;28;20067;-68
2023/06/20 11:14:22;;;;;;;3.35;3.05;;;25.30;30.90;;;;;;5005409;28;20486;-68
2023/06/20 11:16:50;;;;;;;3.60;3.20;;;25.30;19.70;;;;;;4996457;28;20673;-69
2023/06/20 11:19:26;;;;;;;3.07;2.87;;;25.30;19.60;;;;;;5016982;28;20050;-67
2023/06/20 11:21:53;;;;;;;3.67;3.35;;;25.30;24.30;;;;;;4987862;28;20048;-69
2023/06/20 11:24:22;;;;;;;2.78;2.40;;;25.30;12.60;;;;;;5011016;28;20128;-69
2023/06/20 11:26:48;;;;;;;3.10;2.90;;;25.20;18.10;;;;;;5027292;28;20098;-68
2023/06/20 11:29:15;;;;;;;3.35;3.05;;;25.10;12.80;;;;;;4985250;28;20396;-68
2023/06/20 11:31:42;;;;;;;3.05;2.85;;;25.10;10.10;;;;;;4999639;28;20106;-68
2023/06/20 11:34:14;;;;;;;3.08;2.88;;;25.30;22.40;;;;;;5003198;28;20125;-69
2023/06/20 11:36:42;;;;;;;3.30;3.00;;;25.40;22.70;;;;;;4999232;28;20046;-69
2023/06/20 11:39:13;;;;;;;3.55;3.28;;;25.50;13.00;;;;;;5027564;28;20045;-69
2023/06/20 11:41:40;;;;;;;3.63;3.33;;;25.60;27.00;;;;;;5009814;28;20053;-68
2023/06/20 11:44:22;;;;;;;3.55;3.25;;;25.70;18.30;;;;;;4991586;28;20053;-68
2023/06/20 11:46:49;;;;;;;3.17;2.97;;;25.80;12.30;;;;;;4996890;28;20140;-67
2023/06/20 11:49:32;;;;;;;3.95;3.65;;;25.90;19.70;;;;;;5012511;28;20147;-69
2023/06/20 11:51:59;;;;;;;6.15;3.35;;;25.80;5.10;;;;;;5003934;28;20516;-69
2023/06/20 11:54:27;;;;;;;4.50;2.92;;;25.60;8.20;;;;;;5008895;28;20037;-68
2023/06/20 11:56:54;;;;;;;3.90;3.30;;;25.60;13.00;;;;;;5011318;28;20060;-69
2023/06/20 11:59:25;;;;;;;3.55;3.00;;;25.70;16.80;;;;;;4986931;28;20061;-69
2023/06/20 12:01:52;;;;;;;3.63;3.28;;;25.70;30.00;;;;;;5025659;28;20412;-68
2023/06/20 12:04:21;;;;;;;4.40;3.27;;;25.70;18.80;;;;;;5006077;28;20056;-67
2023/06/20 12:06:52;;;;;;;4.77;3.10;;;25.80;14.40;;;;;;4997445;28;20046;-68
2023/06/20 12:09:22;;;;;;;3.63;3.33;;;25.90;21.90;;;;;;5002354;28;20123;-68
2023/06/20 12:11:57;;;;;;;3.05;2.85;;;26.00;17.60;;;;;;5023430;28;20065;-68
2023/06/20 12:14:26;;;;;;;6.43;3.47;;;26.00;18.20;;;;;;5011595;28;20200;-69
2023/06/20 12:16:54;;;;;;;3.03;2.83;;;26.10;21.80;;;;;;5005366;28;20049;-68
2023/06/20 12:19:20;;;;;;;4.38;3.50;;;26.10;27.40;;;;;;5006877;28;20061;-69
2023/06/20 12:21:49;;;;;;;2.95;2.75;;;26.20;12.00;;;;;;5028449;28;20475;-68
2023/06/20 12:24:16;;;;;;;;;;;26.10;17.60;;;;;;5005493;28;20423;-68
2023/06/20 12:26:46;;;;;;;3.70;3.40;;;26.00;18.30;;;;;;4992306;28;20291;-69
2023/06/20 12:29:14;;;;;;;4.35;3.55;;;26.00;18.50;;;;;;5002519;28;20065;-69
2023/06/20 12:31:42;;;;;;;4.13;3.17;;;25.90;14.00;;;;;;5008323;28;20097;-69
2023/06/20 12:34:10;;;;;;;3.88;3.63;;;25.70;22.50;;;;;;5005419;28;20128;-68
2023/06/20 12:36:40;;;;;;;3.53;3.33;;;25.60;30.00;;;;;;5026775;28;20049;-68
2023/06/20 12:39:11;;;;;;;3.28;2.97;;;25.60;19.20;;;;;;5010677;28;20053;-69
2023/06/20 12:41:38;;;;;;;3.50;3.20;;;25.60;27.20;;;;;;4999452;28;20076;-70
2023/06/20 12:44:07;;;;;;;3.20;2.95;;;25.70;32.60;;;;;;5010875;28;20060;-69
2023/06/20 12:46:34;;;;;;;3.72;3.35;;;25.90;23.40;;;;;;4998247;28;20505;-69
2023/06/20 12:49:02;;;;;;;3.95;3.33;;;25.90;15.50;;;;;;5008972;28;20509;-69
2023/06/20 12:51:29;;;;;;;3.47;3.05;;;26.00;17.80;;;;;;5003988;28;20057;-69
2023/06/20 12:54:00;;;;;;;3.75;3.45;;;26.10;10.50;;;;;;5010186;28;20045;-69
2023/06/20 12:56:28;;;;;;;3.50;3.20;;;26.00;13.00;;;;;;5007770;28;20055;-69